Time;durP1;ratioP1;P1;durP2;ratioP2;P2;SDS_P1;SDS_P2;PMS_P1;PMS_P2;Temp;Humidity;BMP_temperature;BMP_pressure;BME280_temperature;BME280_humidity;BME280_pressure;Samples;Min_cycle;Max_cycle;Signal;HPM_P1;HPM_P2
2023/02/18 00:01:10;;;;;;;;;;;11.00;91.00;;;;;;4954013;29;20072;-30
2023/02/18 00:03:36;;;;;;;;;;;11.00;91.00;;;;;;4953966;29;19915;-29
2023/02/18 00:06:09;;;;;;;;;;;11.00;91.00;;;;;;4953922;29;20006;-30
2023/02/18 00:08:34;;;;;;;;;;;11.00;91.00;;;;;;4936343;29;19917;-34
2023/02/18 00:11:00;;;;;;;;;;;10.90;91.00;;;;;;4953664;29;20005;-31
2023/02/18 00:13:25;;;;;;;;;;;11.00;91.10;;;;;;4953629;29;19914;-31
2023/02/18 00:15:51;;;;;;;;;;;11.00;91.10;;;;;;4936077;29;20005;-28
2023/02/18 00:18:16;;;;;;;;;;;11.00;91.10;;;;;;4953419;29;19921;-33
2023/02/18 00:20:42;;;;;;;;;;;10.90;91.10;;;;;;4953490;29;19918;-32
2023/02/18 00:23:07;;;;;;;;;;;10.90;91.10;;;;;;4953442;29;19917;-30
2023/02/18 00:25:33;;;;;;;;;;;10.90;91.20;;;;;;4953600;29;19910;-32
2023/02/18 00:27:58;;;;;;;;;;;10.90;91.20;;;;;;4953817;29;19910;-32
2023/02/18 00:30:24;;;;;;;;;;;10.90;91.30;;;;;;4953826;29;20355;-29
2023/02/18 00:32:49;;;;;;;;;;;10.80;91.60;;;;;;4953982;29;19957;-30
2023/02/18 00:35:15;;;;;;;;;;;10.80;91.30;;;;;;4936485;29;19918;-35
2023/02/18 00:37:40;;;;;;;;;;;10.80;91.30;;;;;;4953574;29;19914;-35
2023/02/18 00:40:06;;;;;;;;;;;10.80;91.40;;;;;;4953921;29;19914;-34
2023/02/18 00:42:31;;;;;;;;;;;10.80;91.30;;;;;;4953497;28;19921;-36
2023/02/18 00:44:57;;;;;;;;;;;10.80;91.40;;;;;;4936126;29;19911;-31
2023/02/18 00:47:22;;;;;;;;;;;10.90;91.40;;;;;;4953517;29;19911;-37
2023/02/18 00:49:48;;;;;;;;;;;10.90;91.40;;;;;;4953603;29;20422;-37
2023/02/18 00:52:13;;;;;;;;;;;10.90;91.40;;;;;;4953662;29;19907;-30
2023/02/18 00:54:39;;;;;;;;;;;10.90;91.40;;;;;;4953447;29;20366;-33
2023/02/18 00:57:04;;;;;;;;;;;10.90;91.40;;;;;;4953289;29;19950;-29
2023/02/18 00:59:30;;;;;;;;;;;10.90;91.40;;;;;;4953637;29;19957;-30
2023/02/18 01:01:55;;;;;;;;;;;10.90;91.40;;;;;;4953317;29;19911;-30
2023/02/18 01:04:21;;;;;;;;;;;10.80;91.40;;;;;;4953465;29;19961;-30
2023/02/18 01:06:46;;;;;;;;;;;10.80;91.40;;;;;;4953353;29;19910;-31
2023/02/18 01:09:11;;;;;;;;;;;10.90;91.50;;;;;;4953424;29;20001;-34
2023/02/18 01:11:37;;;;;;;;;;;10.80;91.50;;;;;;4953350;29;19979;-33
2023/02/18 01:14:03;;;;;;;;;;;10.80;91.50;;;;;;4953492;29;19911;-32
2023/02/18 01:16:28;;;;;;;;;;;10.80;91.50;;;;;;4953278;29;19914;-28
2023/02/18 01:18:54;;;;;;;;;;;10.80;91.50;;;;;;4953088;29;19993;-33
2023/02/18 01:21:19;;;;;;;;;;;10.80;91.50;;;;;;4953346;29;20442;-31
2023/02/18 01:23:45;;;;;;;;;;;10.80;91.60;;;;;;4953126;29;19934;-35
2023/02/18 01:26:11;;;;;;;;;;;10.80;91.50;;;;;;4953213;29;19932;-31
2023/02/18 01:28:37;;;;;;;;;;;10.80;91.60;;;;;;4953342;29;19910;-32
2023/02/18 01:31:06;;;;;;;;;;;10.80;91.60;;;;;;4953310;29;19989;-36
2023/02/18 01:33:32;;;;;;;;;;;10.80;91.60;;;;;;4953280;29;20009;-37
2023/02/18 01:35:57;;;;;;;;;;;10.80;91.50;;;;;;4953095;29;19950;-28
2023/02/18 01:38:23;;;;;;;;;;;10.90;91.60;;;;;;4953108;29;19915;-38
2023/02/18 01:40:50;;;;;;;;;;;10.90;91.50;;;;;;4953190;29;20291;-35
2023/02/18 01:43:16;;;;;;;;;;;10.90;91.50;;;;;;4953022;29;19911;-33
2023/02/18 01:45:46;;;;;;;;;;;10.90;91.50;;;;;;4953081;29;20290;-31
2023/02/18 01:48:23;;;;;;;;;;;10.90;91.40;;;;;;4953105;29;20005;-29
2023/02/18 01:50:55;;;;;;;;;;;10.90;91.40;;;;;;4952926;29;19985;-29
2023/02/18 01:53:30;;;;;;;;;;;11.00;91.40;;;;;;4954288;28;20417;-34
2023/02/18 01:55:56;;;;;;;;;;;11.00;91.40;;;;;;4956372;29;19911;-32
2023/02/18 01:58:21;;;;;;;;;;;11.00;91.40;;;;;;4956429;29;19973;-34
2023/02/18 02:00:47;;;;;;;;;;;11.00;91.30;;;;;;4956595;29;19965;-29
2023/02/18 02:03:12;;;;;;;;;;;11.00;91.40;;;;;;4956626;29;20007;-29
2023/02/18 02:05:38;;;;;;;;;;;11.00;91.30;;;;;;4956697;29;19914;-39
2023/02/18 02:08:04;;;;;;;;;;;11.00;91.30;;;;;;4956237;29;19923;-32
2023/02/18 02:10:39;;;;;;;;;;;11.00;91.30;;;;;;4956185;29;19916;-28
2023/02/18 02:13:05;;;;;;;;;;;11.00;91.30;;;;;;4956272;29;19911;-32
2023/02/18 02:15:30;;;;;;;;;;;11.00;91.30;;;;;;4956224;29;20287;-28
2023/02/18 02:18:14;;;;;;;;;;;11.00;91.30;;;;;;4956389;29;19914;-37
2023/02/18 02:20:49;;;;;;;;;;;11.00;91.30;;;;;;4956278;29;19910;-28
2023/02/18 02:23:23;;;;;;;;;;;11.00;91.20;;;;;;4956387;29;20008;-33
2023/02/18 02:26:07;;;;;;;;;;;11.00;91.30;;;;;;4956191;29;19910;-29
2023/02/18 02:28:51;;;;;;;;;;;11.00;91.30;;;;;;4956303;29;20507;-30
2023/02/18 02:31:16;;;;;;;;;;;11.00;91.30;;;;;;4956149;29;19911;-30
2023/02/18 02:33:51;;;;;;;;;;;11.00;91.30;;;;;;4956087;29;19917;-35
2023/02/18 02:36:19;;;;;;;;;;;11.00;91.30;;;;;;4956207;29;19910;-35
2023/02/18 02:38:48;;;;;;;;;;;10.90;91.30;;;;;;4956179;29;20271;-31
2023/02/18 02:41:33;;;;;;;;;;;11.00;91.40;;;;;;4956064;29;20017;-34
2023/02/18 02:44:31;;;;;;;;;;;10.90;91.40;;;;;;4956272;29;19922;-29
2023/02/18 02:47:01;;;;;;;;;;;10.90;91.40;;;;;;4903352;29;19985;-34
2023/02/18 02:49:45;;;;;;;;;;;10.90;91.50;;;;;;4956387;29;20295;-31
2023/02/18 02:52:20;;;;;;;;;;;10.90;91.50;;;;;;4956002;29;19911;-33
2023/02/18 02:54:46;;;;;;;;;;;10.90;91.50;;;;;;4955898;29;19911;-32
2023/02/18 02:57:14;;;;;;;;;;;10.90;91.70;;;;;;4955941;29;20417;-32
2023/02/18 02:59:41;;;;;;;;;;;10.90;91.60;;;;;;4955843;29;19911;-35
2023/02/18 03:02:06;;;;;;;;;;;10.90;91.60;;;;;;4955791;29;19915;-32
2023/02/18 03:04:41;;;;;;;;;;;10.90;91.70;;;;;;4956007;28;19961;-32
2023/02/18 03:07:20;;;;;;;;;;;10.90;91.70;;;;;;4955483;29;20346;-34
2023/02/18 03:09:49;;;;;;;;;;;11.00;91.70;;;;;;4955554;29;20004;-35
2023/02/18 03:12:22;;;;;;;;;;;11.00;91.90;;;;;;4955706;29;20001;-31
2023/02/18 03:14:50;;;;;;;;;;;11.00;91.90;;;;;;4955320;29;19922;-33
2023/02/18 03:17:24;;;;;;;;;;;11.00;92.00;;;;;;4955346;29;20247;-33
2023/02/18 03:20:04;;;;;;;;;;;11.00;92.00;;;;;;4955418;29;20282;-33
2023/02/18 03:22:31;;;;;;;;;;;11.00;92.00;;;;;;4955400;29;19915;-34
2023/02/18 03:24:58;;;;;;;;;;;11.10;92.20;;;;;;4955586;29;20005;-32
2023/02/18 03:27:25;;;;;;;;;;;11.00;92.30;;;;;;4955452;29;20017;-36
2023/02/18 03:29:54;;;;;;;;;;;11.10;92.30;;;;;;4955339;29;19914;-32
2023/02/18 03:32:21;;;;;;;;;;;11.10;92.40;;;;;;4955475;29;19914;-32
2023/02/18 03:34:49;;;;;;;;;;;11.10;92.50;;;;;;4955437;29;19914;-34
2023/02/18 03:37:15;;;;;;;;;;;11.10;92.50;;;;;;4953984;29;19945;-34
2023/02/18 03:39:43;;;;;;;;;;;11.10;92.50;;;;;;4953984;29;19915;-35
2023/02/18 03:42:08;;;;;;;;;;;11.10;92.50;;;;;;4954484;29;20005;-31
2023/02/18 03:44:34;;;;;;;;;;;11.10;92.50;;;;;;4955009;29;19964;-28
2023/02/18 03:46:59;;;;;;;;;;;11.10;92.50;;;;;;4955176;29;19914;-31
2023/02/18 03:49:25;;;;;;;;;;;11.10;92.50;;;;;;4955126;29;20001;-31
2023/02/18 03:51:50;;;;;;;;;;;11.10;92.70;;;;;;4954817;29;19914;-27
2023/02/18 03:54:16;;;;;;;;;;;11.10;92.90;;;;;;4954704;29;19953;-31
2023/02/18 03:56:41;;;;;;;;;;;11.10;92.50;;;;;;4954762;29;20322;-30
2023/02/18 03:59:07;;;;;;;;;;;11.10;92.50;;;;;;4954612;29;20302;-32
2023/02/18 04:01:32;;;;;;;;;;;11.20;92.50;;;;;;4954837;29;19915;-34
2023/02/18 04:03:58;;;;;;;;;;;11.20;92.50;;;;;;4954601;29;20453;-29
2023/02/18 04:06:23;;;;;;;;;;;11.20;92.50;;;;;;4954536;29;20013;-36
2023/02/18 04:08:49;;;;;;;;;;;11.20;92.50;;;;;;4954767;29;19966;-31
2023/02/18 04:11:14;;;;;;;;;;;11.20;92.50;;;;;;4954548;29;19922;-33
2023/02/18 04:13:40;;;;;;;;;;;11.20;92.50;;;;;;4954252;29;19930;-31
2023/02/18 04:16:05;;;;;;;;;;;11.20;92.50;;;;;;4953925;28;20398;-34
2023/02/18 04:18:31;;;;;;;;;;;11.20;92.50;;;;;;4954269;29;19918;-35
2023/02/18 04:20:57;;;;;;;;;;;11.20;92.60;;;;;;4954191;29;20405;-33
2023/02/18 04:23:23;;;;;;;;;;;11.20;92.60;;;;;;4954296;29;19941;-29
2023/02/18 04:25:48;;;;;;;;;;;11.20;92.60;;;;;;4936851;29;20417;-32
2023/02/18 04:28:15;;;;;;;;;;;11.20;92.60;;;;;;4954200;29;20394;-32
2023/02/18 04:30:44;;;;;;;;;;;11.20;92.60;;;;;;4954263;29;19914;-30
2023/02/18 04:33:09;;;;;;;;;;;11.20;92.60;;;;;;4954222;29;19989;-31
2023/02/18 04:35:35;;;;;;;;;;;11.20;92.60;;;;;;4954352;29;19914;-37
2023/02/18 04:38:01;;;;;;;;;;;11.20;92.60;;;;;;4953948;29;20033;-31
2023/02/18 04:40:29;;;;;;;;;;;11.30;92.70;;;;;;4953995;29;19922;-36
2023/02/18 04:42:58;;;;;;;;;;;11.30;92.70;;;;;;4954237;29;20410;-28
2023/02/18 04:45:24;;;;;;;;;;;11.30;92.70;;;;;;4954074;29;19914;-27
2023/02/18 04:47:49;;;;;;;;;;;11.30;92.80;;;;;;4954076;29;20014;-28
2023/02/18 04:50:15;;;;;;;;;;;11.20;92.70;;;;;;4953927;29;19914;-31
2023/02/18 04:52:40;;;;;;;;;;;11.20;92.70;;;;;;4953949;29;20014;-31
2023/02/18 04:55:06;;;;;;;;;;;11.20;92.70;;;;;;4936620;29;20428;-29
2023/02/18 04:57:32;;;;;;;;;;;11.20;92.70;;;;;;4953701;29;19918;-34
2023/02/18 04:59:57;;;;;;;;;;;11.20;92.80;;;;;;4954085;29;19915;-32
2023/02/18 05:02:22;;;;;;;;;;;11.20;92.80;;;;;;4953932;29;20355;-30
2023/02/18 05:04:48;;;;;;;;;;;11.20;92.90;;;;;;4953820;29;19914;-34
2023/02/18 05:07:13;;;;;;;;;;;11.20;92.90;;;;;;4953923;29;19918;-30
2023/02/18 05:09:39;;;;;;;;;;;11.20;92.90;;;;;;4953757;29;20402;-33
2023/02/18 05:12:05;;;;;;;;;;;11.20;92.90;;;;;;4954009;29;20355;-30
2023/02/18 05:14:30;;;;;;;;;;;11.20;92.90;;;;;;4953884;29;19930;-29
2023/02/18 05:16:56;;;;;;;;;;;11.10;93.00;;;;;;4953856;29;20343;-29
2023/02/18 05:19:21;;;;;;;;;;;11.10;93.10;;;;;;4954102;29;19923;-34
2023/02/18 05:21:47;;;;;;;;;;;11.10;93.00;;;;;;4954004;29;19993;-29
2023/02/18 05:24:12;;;;;;;;;;;11.10;93.10;;;;;;4953724;29;19914;-29
2023/02/18 05:26:38;;;;;;;;;;;11.10;93.10;;;;;;4954102;29;20473;-34
2023/02/18 05:29:03;;;;;;;;;;;11.10;93.10;;;;;;4956169;28;19961;-33
2023/02/18 05:31:29;;;;;;;;;;;11.10;93.20;;;;;;4957516;29;19918;-33
2023/02/18 05:33:54;;;;;;;;;;;11.10;93.20;;;;;;4957662;29;19926;-32
2023/02/18 05:36:21;;;;;;;;;;;11.10;93.20;;;;;;4957606;29;19937;-32
2023/02/18 05:38:46;;;;;;;;;;;11.10;93.30;;;;;;4957615;29;19972;-30
2023/02/18 05:41:11;;;;;;;;;;;11.00;93.30;;;;;;4957544;29;19918;-30
2023/02/18 05:44:37;;;;;;;;;;;11.00;93.30;;;;;;4957480;29;19914;-29
2023/02/18 05:46:32;;;;;;;;;;;11.00;93.30;;;;;;4940693;29;20378;-28
2023/02/18 05:48:57;;;;;;;;;;;11.00;93.50;;;;;;4957670;29;19997;-35
2023/02/18 05:51:23;;;;;;;;;;;11.00;93.50;;;;;;4957594;29;19937;-27
2023/02/18 05:53:48;;;;;;;;;;;11.00;93.70;;;;;;4957234;29;19914;-32
2023/02/18 05:56:14;;;;;;;;;;;10.90;93.70;;;;;;4957370;29;20286;-31
2023/02/18 05:58:39;;;;;;;;;;;10.90;93.70;;;;;;4957416;29;19924;-30
2023/02/18 06:01:05;;;;;;;;;;;10.90;93.80;;;;;;4957209;29;20376;-28
2023/02/18 06:03:30;;;;;;;;;;;10.90;93.80;;;;;;4957012;29;19942;-28
2023/02/18 06:05:56;;;;;;;;;;;10.80;93.90;;;;;;4957528;29;19914;-28
2023/02/18 06:08:21;;;;;;;;;;;10.80;93.90;;;;;;4957133;29;19914;-27
2023/02/18 06:10:47;;;;;;;;;;;10.80;94.00;;;;;;4957301;29;20001;-29
2023/02/18 06:13:12;;;;;;;;;;;10.80;94.00;;;;;;4957183;29;19914;-28
2023/02/18 06:15:38;;;;;;;;;;;10.80;94.00;;;;;;4956780;29;20402;-30
2023/02/18 06:18:04;;;;;;;;;;;10.80;94.00;;;;;;4956792;29;20378;-37
2023/02/18 06:20:29;;;;;;;;;;;10.80;94.00;;;;;;4957126;29;19915;-32
2023/02/18 06:22:55;;;;;;;;;;;10.70;94.30;;;;;;4956824;29;19915;-29
2023/02/18 06:25:21;;;;;;;;;;;10.70;94.10;;;;;;4956914;29;19921;-28
2023/02/18 06:27:46;;;;;;;;;;;10.70;94.20;;;;;;4956787;29;19914;-37
2023/02/18 06:30:12;;;;;;;;;;;10.70;94.20;;;;;;4956656;29;19914;-30
2023/02/18 06:32:37;;;;;;;;;;;10.70;94.30;;;;;;4956648;29;20017;-28
2023/02/18 06:35:03;;;;;;;;;;;10.70;94.30;;;;;;4956588;29;19918;-29
2023/02/18 06:37:28;;;;;;;;;;;10.70;94.20;;;;;;4956141;29;19922;-27
2023/02/18 06:39:54;;;;;;;;;;;10.70;94.30;;;;;;4956214;28;19919;-31
2023/02/18 06:42:19;;;;;;;;;;;10.70;94.30;;;;;;4956445;29;20282;-32
2023/02/18 06:44:45;;;;;;;;;;;10.70;94.30;;;;;;4956610;29;19921;-33
2023/02/18 06:47:10;;;;;;;;;;;10.60;94.20;;;;;;4956462;29;20235;-30
2023/02/18 06:49:37;;;;;;;;;;;10.60;94.30;;;;;;4956380;29;19933;-34
2023/02/18 06:52:03;;;;;;;;;;;10.60;94.30;;;;;;4956555;29;19914;-29
2023/02/18 06:54:29;;;;;;;;;;;10.60;94.30;;;;;;4956322;29;19926;-27
2023/02/18 06:56:54;;;;;;;;;;;10.60;94.30;;;;;;4956132;29;19926;-32
2023/02/18 06:59:20;;;;;;;;;;;10.60;94.30;;;;;;4956030;29;19934;-29
2023/02/18 07:01:45;;;;;;;;;;;10.60;94.30;;;;;;4955997;29;19914;-31
2023/02/18 07:04:11;;;;;;;;;;;10.60;94.40;;;;;;4955916;29;20355;-26
2023/02/18 07:06:36;;;;;;;;;;;10.60;94.30;;;;;;4955868;29;19970;-32
2023/02/18 07:09:02;;;;;;;;;;;10.60;94.30;;;;;;4955800;29;19923;-27
2023/02/18 07:11:27;;;;;;;;;;;10.60;94.30;;;;;;4955890;29;19922;-33
2023/02/18 07:13:53;;;;;;;;;;;10.60;94.30;;;;;;4938479;29;19942;-28
2023/02/18 07:16:18;;;;;;;;;;;10.60;94.30;;;;;;4955640;29;20283;-25
2023/02/18 07:18:44;;;;;;;;;;;10.60;94.30;;;;;;4955668;29;19977;-30
2023/02/18 07:21:10;;;;;;;;;;;10.60;94.40;;;;;;4955686;29;19915;-28
2023/02/18 07:23:35;;;;;;;;;;;10.60;94.40;;;;;;4955692;29;19937;-32
2023/02/18 07:26:02;;;;;;;;;;;10.60;94.40;;;;;;4955640;29;20024;-25
2023/02/18 07:28:27;;;;;;;;;;;10.50;94.40;;;;;;4955863;29;19915;-27
2023/02/18 07:30:53;;;;;;;;;;;10.50;94.30;;;;;;4955417;29;19915;-32
2023/02/18 07:33:18;;;;;;;;;;;10.50;94.40;;;;;;4955767;29;19918;-28
2023/02/18 07:35:43;;;;;;;;;;;10.50;94.40;;;;;;4955591;29;19914;-30
2023/02/18 07:38:09;;;;;;;;;;;10.50;94.40;;;;;;4955284;29;19965;-29
2023/02/18 07:40:34;;;;;;;;;;;10.50;94.30;;;;;;4955407;29;20382;-34
2023/02/18 07:43:00;;;;;;;;;;;10.50;94.30;;;;;;4955355;29;20391;-34
2023/02/18 07:45:25;;;;;;;;;;;10.50;94.30;;;;;;4955381;29;19969;-33
2023/02/18 07:47:51;;;;;;;;;;;10.50;94.20;;;;;;4955334;29;19954;-31
2023/02/18 07:50:16;;;;;;;;;;;10.50;94.20;;;;;;4954736;28;19937;-32
2023/02/18 07:52:42;;;;;;;;;;;10.50;94.20;;;;;;4954935;29;19957;-35
2023/02/18 07:55:08;;;;;;;;;;;10.50;94.10;;;;;;4955104;29;20012;-35
2023/02/18 07:57:56;;;;;;;;;;;10.50;94.10;;;;;;4955232;29;19918;-31
2023/02/18 08:00:19;;;;;;;;;;;10.50;94.10;;;;;;4954646;29;19919;-33
2023/02/18 08:02:44;;;;;;;;;;;10.50;94.00;;;;;;4954938;29;19914;-31
2023/02/18 08:05:10;;;;;;;;;;;10.50;93.90;;;;;;4954958;29;19921;-26
2023/02/18 08:07:36;;;;;;;;;;;10.50;93.90;;;;;;4954897;29;19914;-36
2023/02/18 08:10:01;;;;;;;;;;;10.50;93.90;;;;;;4954806;29;19936;-30
2023/02/18 08:12:27;;;;;;;;;;;10.50;93.80;;;;;;4955149;29;20422;-32
2023/02/18 08:14:52;;;;;;;;;;;10.40;93.80;;;;;;4954820;29;20022;-39
2023/02/18 08:17:18;;;;;;;;;;;10.50;93.80;;;;;;4954989;29;19919;-28
2023/02/18 08:19:43;;;;;;;;;;;10.40;93.70;;;;;;4954730;29;19914;-27
2023/02/18 08:22:09;;;;;;;;;;;10.50;93.60;;;;;;4954606;29;19914;-27
2023/02/18 08:24:34;;;;;;;;;;;10.50;93.50;;;;;;4954597;29;20595;-26
2023/02/18 08:27:00;;;;;;;;;;;10.50;93.40;;;;;;4954530;29;20002;-27
2023/02/18 08:29:25;;;;;;;;;;;10.50;93.30;;;;;;4954572;29;19942;-34
2023/02/18 08:31:53;;;;;;;;;;;10.50;93.30;;;;;;4954380;29;19915;-28
2023/02/18 08:34:18;;;;;;;;;;;10.50;93.20;;;;;;4954315;29;19922;-33
2023/02/18 08:36:43;;;;;;;;;;;10.50;93.00;;;;;;4954641;29;19911;-31
2023/02/18 08:39:09;;;;;;;;;;;10.50;93.00;;;;;;4954448;29;19914;-30
2023/02/18 08:41:34;;;;;;;;;;;10.50;92.80;;;;;;4954419;29;19917;-27
2023/02/18 08:44:00;;;;;;;;;;;10.40;92.70;;;;;;4954261;29;19914;-27
2023/02/18 08:46:25;;;;;;;;;;;10.40;92.70;;;;;;4954302;29;19918;-30
2023/02/18 08:48:51;;;;;;;;;;;10.40;92.80;;;;;;4954437;29;19917;-33
2023/02/18 08:51:18;;;;;;;;;;;10.40;92.80;;;;;;4954618;29;19958;-35
2023/02/18 08:53:45;;;;;;;;;;;10.40;92.70;;;;;;4954141;29;20406;-28
2023/02/18 08:56:12;;;;;;;;;;;10.40;92.70;;;;;;4954234;29;20004;-29
2023/02/18 08:58:37;;;;;;;;;;;10.40;92.70;;;;;;4954324;29;20418;-29
2023/02/18 09:01:07;;;;;;;;;;;10.40;92.60;;;;;;4954144;29;19961;-30
2023/02/18 09:03:33;;;;;;;;;;;10.40;92.60;;;;;;4954210;29;19914;-30
2023/02/18 09:05:59;;;;;;;;;;;10.40;92.50;;;;;;4953962;29;19989;-32
2023/02/18 09:08:24;;;;;;;;;;;10.40;92.50;;;;;;4953850;29;20267;-31
2023/02/18 09:10:53;;;;;;;;;;;10.40;92.50;;;;;;4953804;29;19911;-31
2023/02/18 09:13:19;;;;;;;;;;;10.30;92.50;;;;;;4953997;29;19914;-31
2023/02/18 09:15:44;;;;;;;;;;;10.30;92.50;;;;;;4954040;29;20320;-30
2023/02/18 09:18:10;;;;;;;;;;;10.30;92.60;;;;;;4953759;29;19915;-32
2023/02/18 09:20:35;;;;;;;;;;;10.20;92.60;;;;;;4954017;29;19934;-29
2023/02/18 09:23:02;;;;;;;;;;;10.20;92.60;;;;;;4954132;29;20046;-30
2023/02/18 09:25:28;;;;;;;;;;;10.20;92.70;;;;;;4953979;29;19926;-30
2023/02/18 09:27:53;;;;;;;;;;;10.10;92.70;;;;;;4953791;29;19997;-30
2023/02/18 09:30:18;;;;;;;;;;;10.10;92.70;;;;;;4954169;29;19915;-30
2023/02/18 09:32:44;;;;;;;;;;;10.10;92.70;;;;;;4953819;29;19910;-29
2023/02/18 09:35:09;;;;;;;;;;;10.10;92.80;;;;;;4954152;29;19977;-28
2023/02/18 09:37:35;;;;;;;;;;;10.10;92.90;;;;;;4953770;29;19914;-30
2023/02/18 09:40:00;;;;;;;;;;;10.10;92.90;;;;;;4953699;29;20001;-31
2023/02/18 09:42:31;;;;;;;;;;;10.00;93.00;;;;;;4953837;29;19942;-30
2023/02/18 09:44:59;;;;;;;;;;;10.00;93.00;;;;;;4953914;29;19971;-30
2023/02/18 09:47:29;;;;;;;;;;;10.10;93.10;;;;;;4953714;29;19911;-33
2023/02/18 09:49:57;;;;;;;;;;;10.10;93.10;;;;;;4953685;29;19920;-29
2023/02/18 09:52:31;;;;;;;;;;;10.10;93.10;;;;;;4953764;29;19920;-31
2023/02/18 09:54:56;;;;;;;;;;;10.20;93.10;;;;;;4953789;29;20394;-32
2023/02/18 09:57:22;;;;;;;;;;;10.10;93.00;;;;;;4953786;29;19918;-28
2023/02/18 09:59:50;;;;;;;;;;;10.10;93.00;;;;;;4954017;29;20662;-29
2023/02/18 10:02:19;;;;;;;;;;;10.10;92.90;;;;;;4953661;29;20013;-30
2023/02/18 10:04:44;;;;;;;;;;;10.10;92.90;;;;;;4953792;29;20290;-35
2023/02/18 10:07:30;;;;;;;;;;;10.10;92.90;;;;;;4953866;29;19911;-31
2023/02/18 10:09:58;;;;;;;;;;;10.20;92.80;;;;;;4952739;29;19911;-29
2023/02/18 10:12:24;;;;;;;;;;;10.20;92.80;;;;;;4953415;29;19910;-34
2023/02/18 10:14:51;;;;;;;;;;;10.20;92.70;;;;;;4955110;28;20021;-32
2023/02/18 10:17:17;;;;;;;;;;;10.20;92.70;;;;;;4956913;29;19911;-30
2023/02/18 10:19:44;;;;;;;;;;;10.20;92.70;;;;;;4957128;29;19917;-32
2023/02/18 10:22:11;;;;;;;;;;;10.20;92.50;;;;;;4956895;29;19917;-28
2023/02/18 10:24:39;;;;;;;;;;;10.20;92.50;;;;;;4956960;29;20371;-31
2023/02/18 10:27:06;;;;;;;;;;;10.30;92.50;;;;;;4957163;29;19910;-30
2023/02/18 10:29:31;;;;;;;;;;;10.20;92.50;;;;;;4956677;29;19921;-31
2023/02/18 10:32:06;;;;;;;;;;;10.20;92.50;;;;;;4956692;29;19915;-31
2023/02/18 10:34:40;;;;;;;;;;;10.20;92.50;;;;;;4956454;29;19914;-45
2023/02/18 10:37:21;;;;;;;;;;;10.20;92.60;;;;;;4956662;29;20285;-30
2023/02/18 10:40:05;;;;;;;;;;;10.20;92.70;;;;;;4956519;29;19914;-30
2023/02/18 10:42:40;;;;;;;;;;;10.20;92.80;;;;;;4956502;29;20355;-32
2023/02/18 10:45:05;;;;;;;;;;;10.20;92.80;;;;;;4956564;29;19934;-28
2023/02/18 10:47:34;;;;;;;;;;;10.20;92.80;;;;;;4956517;29;19933;-34
2023/02/18 10:50:07;;;;;;;;;;;10.30;92.70;;;;;;4956640;29;19910;-32
2023/02/18 10:52:36;;;;;;;;;;;10.30;92.70;;;;;;4956300;29;20200;-29
2023/02/18 10:55:03;;;;;;;;;;;10.30;92.70;;;;;;4956234;29;19911;-30
2023/02/18 10:57:30;;;;;;;;;;;10.30;92.60;;;;;;4956229;29;19922;-38
2023/02/18 10:59:56;;;;;;;;;;;10.30;92.60;;;;;;4956407;29;19911;-31
2023/02/18 11:02:24;;;;;;;;;;;10.30;92.60;;;;;;4956169;29;20374;-35
2023/02/18 11:04:50;;;;;;;;;;;10.30;92.70;;;;;;4956586;29;19954;-31
2023/02/18 11:07:21;;;;;;;;;;;10.30;92.70;;;;;;4956344;29;19946;-28
2023/02/18 11:09:49;;;;;;;;;;;10.30;92.70;;;;;;4955990;29;19911;-32
2023/02/18 11:12:44;;;;;;;;;;;10.30;92.70;;;;;;4956055;29;19914;-28
2023/02/18 11:15:16;;;;;;;;;;;10.30;92.70;;;;;;4934943;29;20393;-31
2023/02/18 11:17:43;;;;;;;;;;;10.30;92.70;;;;;;4956117;29;20018;-32
2023/02/18 11:20:25;;;;;;;;;;;10.40;92.70;;;;;;4955983;29;19928;-29
2023/02/18 11:22:51;;;;;;;;;;;10.40;92.60;;;;;;4955959;29;20391;-29
2023/02/18 11:25:21;;;;;;;;;;;10.50;92.60;;;;;;4954977;28;19975;-29
2023/02/18 11:27:51;;;;;;;;;;;10.50;92.50;;;;;;4955476;29;20053;-33
2023/02/18 11:30:22;;;;;;;;;;;10.50;92.30;;;;;;4955782;29;19965;-27
2023/02/18 11:32:49;;;;;;;;;;;10.60;92.30;;;;;;4955842;29;20397;-31
2023/02/18 11:35:19;;;;;;;;;;;10.60;92.30;;;;;;4955513;29;19961;-29
2023/02/18 11:37:44;;;;;;;;;;;10.70;92.20;;;;;;4955504;29;19937;-28
2023/02/18 11:40:20;;;;;;;;;;;10.70;92.10;;;;;;4955589;29;19911;-29
2023/02/18 11:42:46;;;;;;;;;;;10.70;92.00;;;;;;4955620;29;20014;-28
2023/02/18 11:45:25;;;;;;;;;;;10.70;92.00;;;;;;4955365;29;19958;-31
2023/02/18 11:47:57;;;;;;;;;;;10.80;92.00;;;;;;4955666;29;19926;-32
2023/02/18 11:50:23;;;;;;;;;;;10.80;92.30;;;;;;4955249;29;19918;-34
2023/02/18 11:52:50;;;;;;;;;;;10.80;91.80;;;;;;4955320;29;19922;-33
2023/02/18 11:55:15;;;;;;;;;;;10.80;91.90;;;;;;4955459;29;20315;-30
2023/02/18 11:57:49;;;;;;;;;;;10.90;91.90;;;;;;4955150;29;19918;-30
2023/02/18 12:00:19;;;;;;;;;;;10.90;91.90;;;;;;4955296;29;19933;-32
2023/02/18 12:02:45;;;;;;;;;;;10.90;91.90;;;;;;4955311;29;19944;-31
2023/02/18 12:05:24;;;;;;;;;;;11.00;91.80;;;;;;4955431;29;19916;-29
2023/02/18 12:07:52;;;;;;;;;;;11.00;91.80;;;;;;4955148;29;19949;-32
2023/02/18 12:10:22;;;;;;;;;;;11.00;91.70;;;;;;4955025;29;20005;-36
2023/02/18 12:12:52;;;;;;;;;;;11.00;91.80;;;;;;4955379;29;19987;-33
2023/02/18 12:15:23;;;;;;;;;;;11.10;91.80;;;;;;4954858;29;19927;-31
2023/02/18 12:17:54;;;;;;;;;;;11.10;91.80;;;;;;4954885;29;20390;-31
2023/02/18 12:20:34;;;;;;;;;;;11.20;91.90;;;;;;4954943;29;19957;-33
2023/02/18 12:23:03;;;;;;;;;;;11.20;91.90;;;;;;4954781;29;19914;-33
2023/02/18 12:25:36;;;;;;;;;;;11.10;91.90;;;;;;4954883;29;19915;-28
2023/02/18 12:28:11;;;;;;;;;;;11.10;92.00;;;;;;4937257;29;20476;-30
2023/02/18 12:30:52;;;;;;;;;;;11.00;92.00;;;;;;4954726;29;19949;-30
2023/02/18 12:33:18;;;;;;;;;;;11.00;92.00;;;;;;4954766;29;19910;-35
2023/02/18 12:35:46;;;;;;;;;;;11.00;92.10;;;;;;4954337;29;20009;-33
2023/02/18 12:38:20;;;;;;;;;;;11.00;92.10;;;;;;4954173;28;19921;-30
2023/02/18 12:40:49;;;;;;;;;;;11.00;92.10;;;;;;4954388;29;20274;-32
2023/02/18 12:43:39;;;;;;;;;;;11.00;92.10;;;;;;4954450;29;19917;-30
2023/02/18 12:46:10;;;;;;;;;;;11.00;92.10;;;;;;4954595;29;19911;-31
2023/02/18 12:48:55;;;;;;;;;;;11.10;92.10;;;;;;4954543;29;20286;-32
2023/02/18 12:51:21;;;;;;;;;;;11.10;91.90;;;;;;4954455;29;19910;-31
2023/02/18 12:54:01;;;;;;;;;;;11.10;91.90;;;;;;4954248;29;19917;-33
2023/02/18 12:56:33;;;;;;;;;;;11.10;91.80;;;;;;4954356;29;19915;-30
2023/02/18 12:59:10;;;;;;;;;;;11.10;91.70;;;;;;4954481;29;19915;-31
2023/02/18 13:01:45;;;;;;;;;;;11.10;91.80;;;;;;4954059;29;20315;-35
2023/02/18 13:04:29;;;;;;;;;;;11.10;91.80;;;;;;4954115;29;19917;-36
2023/02/18 13:06:57;;;;;;;;;;;11.20;91.70;;;;;;4954432;29;19914;-30
2023/02/18 13:09:51;;;;;;;;;;;11.20;91.70;;;;;;4954070;29;20504;-28
2023/02/18 13:12:17;;;;;;;;;;;11.20;91.70;;;;;;4953967;29;19958;-30
2023/02/18 13:14:48;;;;;;;;;;;11.20;91.60;;;;;;4954081;29;19923;-37
2023/02/18 13:17:14;;;;;;;;;;;11.30;91.60;;;;;;4954397;29;20000;-29
2023/02/18 13:19:58;;;;;;;;;;;11.30;91.60;;;;;;4936768;29;20383;-37
2023/02/18 13:22:25;;;;;;;;;;;11.30;91.60;;;;;;4954002;29;19914;-32
2023/02/18 13:24:53;;;;;;;;;;;11.40;91.40;;;;;;4953809;29;20341;-31
2023/02/18 13:27:25;;;;;;;;;;;11.40;91.30;;;;;;4953980;29;19910;-30
2023/02/18 13:30:02;;;;;;;;;;;11.40;91.20;;;;;;4953914;29;19911;-33
2023/02/18 13:32:36;;;;;;;;;;;11.50;91.30;;;;;;4953807;29;19925;-31
2023/02/18 13:35:04;;;;;;;;;;;11.60;91.20;;;;;;4953943;29;19918;-34
2023/02/18 13:37:35;;;;;;;;;;;11.70;91.20;;;;;;4953669;29;19910;-37
2023/02/18 13:40:01;;;;;;;;;;;11.70;91.00;;;;;;4953927;29;20363;-29
2023/02/18 13:42:27;;;;;;;;;;;11.70;90.70;;;;;;4953910;29;19911;-35
2023/02/18 13:44:55;;;;;;;;;;;11.60;90.50;;;;;;4953845;29;19918;-35
2023/02/18 13:47:36;;;;;;;;;;;11.60;90.60;;;;;;4953863;29;19910;-33
2023/02/18 13:50:13;;;;;;;;;;;11.60;90.60;;;;;;4956353;28;19973;-31
2023/02/18 13:52:39;;;;;;;;;;;11.60;90.80;;;;;;4957432;29;19914;-31
2023/02/18 13:55:04;;;;;;;;;;;11.60;90.80;;;;;;4940289;29;19918;-32
2023/02/18 13:57:30;;;;;;;;;;;11.60;90.80;;;;;;4957427;29;19918;-41
2023/02/18 14:00:02;;;;;;;;;;;11.60;90.70;;;;;;4957065;29;20236;-30
2023/02/18 14:02:29;;;;;;;;;;;11.60;90.70;;;;;;4957191;29;19994;-33
2023/02/18 14:04:57;;;;;;;;;;;11.60;90.70;;;;;;4939889;29;19964;-30
2023/02/18 14:07:32;;;;;;;;;;;11.60;90.70;;;;;;4957172;29;20248;-34
2023/02/18 14:10:15;;;;;;;;;;;11.60;90.70;;;;;;4956798;29;19914;-32
2023/02/18 14:12:43;;;;;;;;;;;11.60;90.70;;;;;;4956927;29;20310;-35
2023/02/18 14:15:17;;;;;;;;;;;11.60;90.70;;;;;;4956602;29;19977;-32
2023/02/18 14:17:46;;;;;;;;;;;11.60;90.70;;;;;;4956944;29;19914;-32
2023/02/18 14:20:12;;;;;;;;;;;11.50;90.60;;;;;;4956731;29;19911;-30
2023/02/18 14:22:37;;;;;;;;;;;11.50;90.60;;;;;;4956605;29;19910;-35